Time;durP1;ratioP1;P1;durP2;ratioP2;P2;SDS_P1;SDS_P2;PMS_P1;PMS_P2;Temp;Humidity;BMP_temperature;BMP_pressure;BME280_temperature;BME280_humidity;BME280_pressure;Samples;Min_cycle;Max_cycle;Signal;HPM_P1;HPM_P2
2022/10/06 00:01:08;;;;;;;11.88;5.67;;;;;;;8.13;78.58;100388.36;1620563;87;21010;-78
2022/10/06 00:03:38;;;;;;;21.68;6.87;;;;;;;8.08;78.39;100385.75;1670878;85;20993;-77
2022/10/06 00:06:07;;;;;;;12.68;6.25;;;;;;;8.04;78.46;100384.01;1656969;85;20996;-78
2022/10/06 00:08:37;;;;;;;12.20;5.60;;;;;;;7.92;77.57;100386.09;1620026;88;21039;-77
2022/10/06 00:11:06;;;;;;;22.07;7.03;;;;;;;7.82;78.00;100381.72;1621384;87;21054;-77
2022/10/06 00:13:35;;;;;;;12.18;6.03;;;;;;;7.79;79.56;100379.52;1631248;88;21037;-78
2022/10/06 00:16:10;;;;;;;12.10;5.62;;;;;;;7.82;80.46;100374.34;1622851;87;21120;-77
2022/10/06 00:18:38;;;;;;;16.27;6.97;;;;;;;7.83;80.29;100377.39;1669305;85;21003;-77
2022/10/06 00:21:05;;;;;;;14.13;6.60;;;;;;;7.83;80.61;100376.95;1677588;85;20973;-78
2022/10/06 00:23:33;;;;;;;16.55;6.15;;;;;;;7.84;81.18;100376.52;1662881;85;21056;-75
2022/10/06 00:26:01;;;;;;;12.47;5.50;;;;;;;7.84;80.34;100375.23;1666496;85;20955;-78
2022/10/06 00:28:29;;;;;;;13.83;5.83;;;;;;;7.88;81.43;100377.87;1671760;86;21781;-78
2022/10/06 00:31:01;;;;;;;15.32;6.53;;;;;;;7.89;80.94;100378.29;1668567;85;21501;-78
2022/10/06 00:33:29;;;;;;;14.95;5.92;;;;;;;7.89;80.67;100373.55;1668014;86;20997;-78
2022/10/06 00:35:59;;;;;;;14.85;5.87;;;;;;;7.91;79.61;100373.98;1640530;85;20983;-78
2022/10/06 00:38:27;;;;;;;18.17;5.92;;;;;;;7.84;79.82;100367.05;1615117;88;21060;-77
2022/10/06 00:40:55;;;;;;;13.75;6.55;;;;;;;7.82;79.69;100371.77;1637422;86;21062;-78
2022/10/06 00:43:49;;;;;;;14.87;6.08;;;;;;;7.82;80.29;100376.53;1660671;85;21025;-78
2022/10/06 00:46:52;;;;;;;12.98;5.70;;;;;;;7.79;80.69;100382.11;1647427;85;21027;-78
2022/10/06 00:49:28;;;;;;;14.90;5.60;;;;;;;7.74;80.42;100378.21;1664597;86;21066;-77
2022/10/06 00:52:09;;;;;;;12.93;5.65;;;;;;;7.73;81.20;100379.91;1663505;86;21021;-77
2022/10/06 00:54:37;;;;;;;13.93;5.78;;;;;;;7.75;81.04;100376.05;1654242;86;21011;-77
2022/10/06 00:57:06;;;;;;;12.45;5.92;;;;;;;7.74;81.31;100374.33;1663330;86;21829;-78
2022/10/06 00:59:35;;;;;;;15.78;5.50;;;;;;;7.67;80.36;100374.69;1662217;85;21510;-77
2022/10/06 01:02:13;;;;;;;13.90;5.78;;;;;;;7.65;80.51;100371.22;1682742;85;20942;-78
2022/10/06 01:04:45;;;;;;;10.53;5.55;;;;;;;7.68;82.05;100368.67;1668685;86;21015;-80
2022/10/06 01:07:16;;;;;;;10.13;5.30;;;;;;;7.69;81.93;100375.56;1667495;85;21007;-79
2022/10/06 01:09:44;;;;;;;11.30;5.00;;;;;;;7.71;81.46;100366.09;1662301;86;21529;-81
2022/10/06 01:12:14;;;;;;;16.67;5.33;;;;;;;7.73;81.43;100378.61;1668379;86;21029;-80
2022/10/06 01:14:42;;;;;;;10.72;4.87;;;;;;;7.69;81.22;100365.22;1664624;86;21070;-80
2022/10/06 01:17:45;;;;;;;13.32;4.50;;;;;;;7.64;80.98;100366.03;1669025;86;21522;-80
2022/10/06 01:20:16;;;;;;;13.93;5.50;;;;;;;7.59;81.69;100363.86;1667171;86;21017;-82
2022/10/06 01:22:47;;;;;;;9.80;5.12;;;;;;;7.60;81.85;100370.34;1668323;85;21030;-78
2022/10/06 01:25:17;;;;;;;12.35;6.05;;;;;;;7.60;81.18;100359.99;1658980;86;20990;-79
2022/10/06 01:27:52;;;;;;;11.68;5.05;;;;;;;7.61;81.68;100359.12;1669193;86;21566;-79
2022/10/06 01:30:22;;;;;;;;;;;;;;;7.65;81.24;100362.60;1666449;86;21038;-81
2022/10/06 01:32:50;;;;;;;13.38;4.75;;;;;;;7.66;81.33;100365.20;1653429;86;20169;-79
2022/10/06 01:35:18;;;;;;;11.85;4.50;;;;;;;7.69;81.12;100364.36;1647663;86;21537;-79
2022/10/06 01:37:46;;;;;;;11.38;4.53;;;;;;;7.69;80.91;100356.59;1668961;86;21011;-78
2022/10/06 01:40:14;;;;;;;13.98;4.70;;;;;;;7.71;80.91;100354.44;1648778;85;21132;-77
2022/10/06 01:42:42;;;;;;;12.25;5.80;;;;;;;7.64;80.26;100356.97;1666956;85;21496;-77
2022/10/06 01:45:10;;;;;;;17.15;6.53;;;;;;;7.49;79.92;100359.03;1663389;85;21063;-78
2022/10/06 01:47:38;;;;;;;15.05;5.90;;;;;;;7.40;80.52;100353.38;1622187;88;21550;-77
2022/10/06 01:50:07;;;;;;;11.03;5.40;;;;;;;7.35;80.04;100354.61;1629858;88;21022;-77
2022/10/06 01:52:35;;;;;;;12.25;5.90;;;;;;;7.24;79.61;100352.37;1628074;87;21077;-78
2022/10/06 01:55:04;;;;;;;11.55;5.97;;;;;;;7.23;80.68;100362.70;1630607;88;21026;-78
2022/10/06 01:57:39;;;;;;;13.65;5.45;;;;;;;7.22;80.61;100360.95;1628445;88;20994;-78
2022/10/06 02:00:10;;;;;;;13.38;5.62;;;;;;;7.24;81.29;100354.97;1629949;88;21030;-78
2022/10/06 02:02:40;;;;;;;13.75;5.37;;;;;;;7.26;81.07;100356.25;1626353;88;20982;-77
2022/10/06 02:05:09;;;;;;;12.45;4.70;;;;;;;7.26;80.89;100367.48;1631502;87;21041;-77
2022/10/06 02:07:38;;;;;;;11.48;4.87;;;;;;;7.25;80.59;100363.59;1629176;88;21057;-77
2022/10/06 02:10:07;;;;;;;11.93;5.67;;;;;;;7.21;79.85;100371.73;1631473;88;21070;-77
2022/10/06 02:12:35;;;;;;;14.43;5.87;;;;;;;7.17;81.05;100372.56;1631645;88;20955;-77
2022/10/06 02:15:05;;;;;;;14.90;6.03;;;;;;;7.19;81.05;100373.45;1631434;88;21026;-77
2022/10/06 02:17:32;;;;;;;11.78;5.67;;;;;;;7.17;80.55;100368.69;1624220;88;21454;-77
2022/10/06 02:20:00;;;;;;;10.85;5.72;;;;;;;7.09;81.87;100372.92;1631091;88;21037;-77
2022/10/06 02:22:28;;;;;;;18.52;5.05;;;;;;;7.07;81.43;100366.88;1630036;87;21058;-77
2022/10/06 02:24:56;;;;;;;16.35;5.87;;;;;;;7.06;81.57;100367.30;1629847;88;21025;-78
2022/10/06 02:27:24;;;;;;;13.95;6.22;;;;;;;7.06;81.33;100359.95;1630757;88;21569;-78
2022/10/06 02:29:52;;;;;;;16.12;5.55;;;;;;;7.04;81.65;100359.07;1632005;88;21014;-80
2022/10/06 02:32:20;;;;;;;12.68;5.55;;;;;;;6.98;81.67;100358.58;1631121;88;21031;-78
2022/10/06 02:34:48;;;;;;;14.68;5.28;;;;;;;6.95;81.29;100351.67;1625252;88;21038;-77
2022/10/06 02:37:17;;;;;;;15.78;5.00;;;;;;;6.93;81.57;100363.72;1631291;88;21483;-77
2022/10/06 02:39:45;;;;;;;16.60;6.95;;;;;;;6.84;81.34;100368.78;1627482;86;21086;-77
2022/10/06 02:42:13;;;;;;;16.42;5.75;;;;;;;6.77;82.28;100357.52;1621161;88;21499;-77
2022/10/06 02:44:40;;;;;;;12.95;5.80;;;;;;;6.76;82.52;100363.95;1643492;87;20982;-77
2022/10/06 02:47:13;;;;;;;12.25;5.70;;;;;;;6.75;81.83;100362.24;1664650;86;20966;-78
2022/10/06 02:49:41;;;;;;;14.78;5.53;;;;;;;6.73;82.12;100363.94;1636350;87;21137;-77
2022/10/06 02:52:10;;;;;;;16.48;6.45;;;;;;;6.72;81.91;100368.66;1663675;86;20997;-77
2022/10/06 02:54:37;;;;;;;12.53;5.80;;;;;;;6.66;81.38;100366.00;1648737;86;20986;-78
2022/10/06 02:57:05;;;;;;;17.10;6.50;;;;;;;6.64;82.41;100366.41;1596707;90;21017;-78
2022/10/06 02:59:33;;;;;;;14.95;5.80;;;;;;;6.63;83.44;100360.82;1623150;87;21010;-77
2022/10/06 03:02:01;;;;;;;16.25;5.95;;;;;;;6.68;83.83;100361.72;1658737;86;20973;-78
2022/10/06 03:04:29;;;;;;;14.75;5.65;;;;;;;6.69;82.62;100365.63;1648239;86;20998;-77
2022/10/06 03:06:57;;;;;;;14.90;5.78;;;;;;;6.72;83.19;100363.48;1665253;86;21447;-77
2022/10/06 03:09:26;;;;;;;11.43;5.25;;;;;;;6.73;83.25;100360.92;1655416;85;21032;-77
2022/10/06 03:11:54;;;;;;;13.38;5.78;;;;;;;6.78;83.22;100360.97;1592990;88;21029;-78
2022/10/06 03:14:23;;;;;;;14.40;5.37;;;;;;;6.82;82.86;100364.02;1619494;88;21038;-78
2022/10/06 03:16:53;;;;;;;10.03;4.95;;;;;;;6.85;82.60;100365.36;1652838;86;21008;-77
2022/10/06 03:19:23;;;;;;;12.20;5.03;;;;;;;6.88;82.58;100358.91;1651740;86;21548;-78
2022/10/06 03:21:50;;;;;;;18.80;6.45;;;;;;;6.93;82.37;100370.61;1654490;86;21005;-77
2022/10/06 03:24:18;;;;;;;12.37;6.50;;;;;;;6.91;81.65;100364.56;1660257;86;20974;-77
2022/10/06 03:26:48;;;;;;;17.20;5.80;;;;;;;6.86;81.40;100364.49;1641858;86;21045;-77
2022/10/06 03:29:16;;;;;;;11.03;4.78;;;;;;;6.83;81.11;100365.77;1641242;87;21002;-78
2022/10/06 03:31:46;;;;;;;11.45;4.42;;;;;;;6.77;81.02;100365.27;1640767;87;21497;-77
2022/10/06 03:34:14;;;;;;;15.18;5.50;;;;;;;6.74;80.98;100374.70;1637656;87;21140;-78
2022/10/06 03:36:42;;;;;;;9.85;4.95;;;;;;;6.70;81.10;100371.65;1643907;87;21037;-77
2022/10/06 03:39:10;;;;;;;8.48;3.83;;;;;;;6.66;81.26;100378.92;1644018;87;21070;-77
2022/10/06 03:41:38;;;;;;;11.25;4.45;;;;;;;6.60;80.96;100388.77;1610842;88;21072;-78
2022/10/06 03:44:07;;;;;;;9.38;4.15;;;;;;;6.53;80.24;100391.70;1633714;88;20994;-77
2022/10/06 03:46:36;;;;;;;9.40;4.47;;;;;;;6.37;81.67;100397.11;1634042;87;21038;-77
2022/10/06 03:49:06;;;;;;;12.35;4.58;;;;;;;6.27;81.56;100397.84;1656653;85;21587;-77
2022/10/06 03:51:37;;;;;;;10.10;5.65;;;;;;;6.18;82.60;100394.69;1651429;86;21053;-77
2022/10/06 03:54:09;;;;;;;14.83;6.90;;;;;;;6.15;82.74;100389.94;1647284;87;20989;-78
2022/10/06 03:56:39;;;;;;;14.85;7.92;;;;;;;6.14;82.53;100384.31;1644879;87;21036;-77
2022/10/06 03:59:11;;;;;;;14.93;6.85;;;;;;;6.14;83.36;100389.05;1652445;87;20986;-77
2022/10/06 04:01:43;;;;;;;18.37;7.30;;;;;;;6.21;83.86;100383.96;1646577;87;21017;-77
2022/10/06 04:04:13;;;;;;;16.95;6.78;;;;;;;6.26;84.65;100378.02;1650023;87;21525;-77
2022/10/06 04:06:43;;;;;;;16.27;7.03;;;;;;;6.35;85.04;100382.45;1647469;87;21512;-78
2022/10/06 04:09:13;;;;;;;21.40;7.35;;;;;;;6.40;84.64;100383.36;1647002;87;20989;-78
2022/10/06 04:11:42;;;;;;;17.40;5.97;;;;;;;6.45;84.19;100386.88;1658961;85;20969;-77
2022/10/06 04:14:14;;;;;;;18.10;6.97;;;;;;;6.46;84.50;100383.42;1645315;87;20988;-77
2022/10/06 04:16:45;;;;;;;12.75;6.53;;;;;;;6.47;83.54;100382.59;1648195;86;21094;-77
2022/10/06 04:19:15;;;;;;;11.57;5.95;;;;;;;6.52;84.28;100387.38;1648721;87;21519;-78
2022/10/06 04:21:46;;;;;;;13.45;6.75;;;;;;;6.55;83.92;100385.27;1649699;87;21040;-78
2022/10/06 04:24:17;;;;;;;17.85;8.95;;;;;;;6.54;84.45;100394.72;1644097;86;21016;-78
2022/10/06 04:26:51;;;;;;;26.15;12.18;;;;;;;6.54;84.29;100389.98;1649918;87;21021;-77
2022/10/06 04:29:20;;;;;;;;;;;;;;;6.52;83.93;100398.14;1611383;88;21004;-78
2022/10/06 04:31:49;;;;;;;32.38;11.63;;;;;;;6.51;83.66;100395.13;1636865;87;20113;-78
2022/10/06 04:34:22;;;;;;;32.58;12.23;;;;;;;6.46;83.27;100391.17;1632457;88;21014;-77
2022/10/06 04:36:49;;;;;;;31.23;13.93;;;;;;;6.43;83.00;100395.47;1644953;87;21477;-77
2022/10/06 04:39:19;;;;;;;25.00;12.98;;;;;;;6.40;83.15;100402.73;1633681;86;21640;-78
2022/10/06 04:41:47;;;;;;;27.05;12.45;;;;;;;6.40;83.31;100397.99;1618566;87;20987;-78
2022/10/06 04:44:18;;;;;;;25.20;11.38;;;;;;;6.42;83.59;100396.30;1619004;88;20986;-77
2022/10/06 04:46:46;;;;;;;22.93;11.63;;;;;;;6.43;83.37;100394.17;1624966;88;21040;-78
2022/10/06 04:49:14;;;;;;;29.40;12.43;;;;;;;6.41;83.02;100402.33;1620870;88;21058;-78
2022/10/06 04:51:42;;;;;;;20.68;10.43;;;;;;;6.42;83.78;100398.88;1631479;87;21652;-77
2022/10/06 04:54:10;;;;;;;14.00;7.80;;;;;;;6.40;82.96;100400.58;1624791;88;21059;-77
2022/10/06 04:56:37;;;;;;;13.88;6.72;;;;;;;6.41;83.87;100399.31;1620972;88;21023;-78
2022/10/06 04:59:06;;;;;;;9.28;5.30;;;;;;;6.37;83.52;100401.42;1664178;86;21455;-78
2022/10/06 05:01:36;;;;;;;14.87;5.87;;;;;;;6.34;84.27;100405.23;1617231;88;20988;-78
2022/10/06 05:04:06;;;;;;;12.63;5.17;;;;;;;6.33;84.58;100402.23;1664146;86;21493;-77
2022/10/06 05:06:39;;;;;;;8.88;5.25;;;;;;;6.27;82.78;100399.13;1643361;85;20998;-77
2022/10/06 05:09:11;;;;;;;9.90;4.53;;;;;;;6.21;84.27;100403.33;1577442;90;21025;-78
2022/10/06 05:11:41;;;;;;;14.18;5.08;;;;;;;6.23;84.64;100405.50;1623031;88;21049;-79
2022/10/06 05:14:11;;;;;;;11.35;5.20;;;;;;;6.24;84.93;100407.26;1662950;86;21502;-77
2022/10/06 05:16:41;;;;;;;12.82;5.30;;;;;;;6.25;84.88;100412.88;1645374;85;21014;-77
2022/10/06 05:19:11;;;;;;;13.22;5.60;;;;;;;6.25;85.12;100407.72;1664529;85;21910;-79
2022/10/06 05:21:40;;;;;;;17.57;5.72;;;;;;;6.26;84.95;100418.05;1648533;86;21457;-78
2022/10/06 05:24:09;;;;;;;12.60;5.25;;;;;;;6.30;85.72;100409.92;1662254;85;20978;-78
2022/10/06 05:26:37;;;;;;;10.98;4.62;;;;;;;6.40;85.47;100410.91;1650378;86;21440;-77
2022/10/06 05:29:06;;;;;;;16.35;5.12;;;;;;;6.39;84.58;100416.52;1609331;88;21102;-78
2022/10/06 05:31:41;;;;;;;11.40;5.17;;;;;;;6.45;85.15;100417.88;1609093;88;20983;-77
2022/10/06 05:34:09;;;;;;;10.82;5.67;;;;;;;6.50;85.52;100420.51;1671903;86;20987;-77
2022/10/06 05:36:37;;;;;;;13.50;5.67;;;;;;;6.58;86.04;100421.47;1659033;86;20959;-79
2022/10/06 05:39:06;;;;;;;15.48;5.35;;;;;;;6.59;84.87;100424.52;1639888;86;21081;-77
2022/10/06 05:41:36;;;;;;;19.10;6.50;;;;;;;6.64;84.75;100427.14;1662633;85;20994;-77
2022/10/06 05:44:07;;;;;;;13.15;5.55;;;;;;;6.71;85.01;100432.84;1661824;86;21007;-77
2022/10/06 05:46:37;;;;;;;11.80;5.70;;;;;;;6.75;84.75;100435.91;1662729;85;21109;-77
2022/10/06 05:49:09;;;;;;;83.40;33.55;;;;;;;6.82;84.98;100437.69;1652298;86;21057;-77
2022/10/06 05:51:39;;;;;;;14.40;7.40;;;;;;;6.92;85.23;100443.84;1663477;86;21110;-77
2022/10/06 05:54:08;;;;;;;16.93;6.67;;;;;;;7.00;84.22;100448.66;1668457;85;21086;-81
2022/10/06 05:56:37;;;;;;;11.00;5.78;;;;;;;6.98;84.26;100449.08;1658404;86;21510;-77
2022/10/06 05:59:06;;;;;;;11.45;5.53;;;;;;;6.98;84.12;100455.54;1661047;86;21098;-78
2022/10/06 06:01:39;;;;;;;13.38;6.12;;;;;;;6.90;84.07;100456.77;1663141;84;21010;-77
2022/10/06 06:04:12;;;;;;;14.30;5.75;;;;;;;6.94;84.39;100451.19;1660715;84;21049;-78
2022/10/06 06:06:47;;;;;;;9.05;4.75;;;;;;;6.99;84.72;100459.02;1664123;86;21065;-77
2022/10/06 06:09:20;;;;;;;11.22;5.95;;;;;;;7.07;84.92;100463.84;1664474;84;21074;-78
2022/10/06 06:11:53;;;;;;;10.20;5.53;;;;;;;7.10;84.93;100462.16;1664979;84;21850;-78
2022/10/06 06:15:59;;;;;;;;;;;;;;;7.14;84.11;100458.77;1672706;84;21214;-79
2022/10/06 06:16:52;;;;;;;9.88;4.95;;;;;;;7.14;84.36;100466.52;1668958;85;20128;-79
2022/10/06 06:19:21;;;;;;;13.13;5.15;;;;;;;7.13;84.09;100479.42;1664817;86;21153;-78
2022/10/06 06:21:49;;;;;;;16.82;5.78;;;;;;;7.14;84.91;100474.67;1665120;86;21475;-80
2022/10/06 06:24:17;;;;;;;13.00;6.15;;;;;;;7.14;84.24;100482.44;1661997;86;21057;-78
2022/10/06 06:26:44;;;;;;;14.47;5.90;;;;;;;7.19;84.67;100478.63;1656734;86;21711;-79
2022/10/06 06:29:13;;;;;;;14.38;6.17;;;;;;;7.27;85.03;100486.91;1661081;86;20998;-78
2022/10/06 06:31:43;;;;;;;15.08;7.17;;;;;;;7.39;85.03;100490.48;1667465;85;21058;-79
2022/10/06 06:34:11;;;;;;;14.43;6.50;;;;;;;7.48;84.65;100485.38;1666098;86;21005;-78
2022/10/06 06:36:42;;;;;;;13.10;6.40;;;;;;;7.54;84.19;100486.33;1663884;86;20963;-77
2022/10/06 06:39:14;;;;;;;11.77;5.87;;;;;;;7.59;84.79;100485.06;1666554;84;21184;-79
2022/10/06 06:41:45;;;;;;;15.30;6.37;;;;;;;7.59;84.64;100491.97;1667589;84;21010;-78
2022/10/06 06:44:15;;;;;;;12.78;5.62;;;;;;;7.59;84.34;100490.23;1621648;84;21089;-78
2022/10/06 06:46:53;;;;;;;12.10;6.42;;;;;;;7.60;84.55;100488.11;1669695;84;21063;-77
2022/10/06 06:49:21;;;;;;;16.97;6.60;;;;;;;7.62;85.06;100487.69;1666369;84;21509;-77
2022/10/06 06:51:53;;;;;;;9.85;5.75;;;;;;;7.66;84.78;100489.45;1670193;84;21501;-79
2022/10/06 06:54:23;;;;;;;14.00;5.42;;;;;;;7.76;85.24;100488.67;1672912;84;21121;-81
2022/10/06 06:56:55;;;;;;;10.65;5.70;;;;;;;7.91;85.87;100487.92;1658833;85;21498;-78
2022/10/06 06:59:24;;;;;;;12.65;6.53;;;;;;;8.06;85.86;100487.63;1670885;84;21140;-78
2022/10/06 07:01:53;;;;;;;14.30;5.83;;;;;;;8.15;85.27;100487.23;1667154;85;21526;-77
2022/10/06 07:04:23;;;;;;;12.58;6.45;;;;;;;8.26;84.83;100486.03;1668040;84;21077;-78
2022/10/06 07:06:56;;;;;;;12.50;6.20;;;;;;;8.38;84.90;100490.86;1664545;85;20981;-79
2022/10/06 07:09:22;;;;;;;14.50;6.20;;;;;;;8.45;84.67;100479.25;1668140;84;21451;-78
2022/10/06 07:11:51;;;;;;;9.90;5.50;;;;;;;8.51;84.50;100476.69;1670234;84;21610;-80
2022/10/06 07:14:22;;;;;;;12.07;5.78;;;;;;;8.65;84.34;100484.98;1669570;84;21493;-77
2022/10/06 07:25:17;;;;;;;12.15;6.60;;;;;;;8.98;84.68;100469.14;1664585;84;21022;-80
2022/10/06 07:27:52;;;;;;;14.00;6.30;;;;;;;9.12;84.69;100479.12;1668399;84;21021;-79
2022/10/06 07:30:27;;;;;;;10.65;6.28;;;;;;;9.23;83.94;100472.66;1662888;84;21020;-81
2022/10/06 07:32:57;;;;;;;14.30;5.80;;;;;;;9.23;83.67;100477.84;1665425;86;21029;-78
2022/10/06 07:35:26;;;;;;;17.73;6.53;;;;;;;9.25;83.05;100468.33;1676028;84;21143;-85
2022/10/06 07:37:56;;;;;;;12.40;6.45;;;;;;;9.26;83.27;100468.34;1671506;84;21585;-79
2022/10/06 07:40:25;;;;;;;19.32;7.17;;;;;;;9.33;83.06;100470.10;1666440;84;21003;-78
2022/10/06 07:42:53;;;;;;;15.08;7.28;;;;;;;9.36;83.06;100469.23;1663221;84;20978;-83
2022/10/06 07:45:48;;;;;;;15.88;7.00;;;;;;;9.45;83.11;100463.17;1661779;84;21026;-80
2022/10/06 07:48:20;;;;;;;15.85;6.17;;;;;;;9.54;83.19;100461.91;1663126;84;21006;-81
2022/10/06 07:50:51;;;;;;;14.13;5.87;;;;;;;9.68;83.05;100463.21;1666217;84;21592;-79
2022/10/06 07:53:28;;;;;;;10.20;5.45;;;;;;;9.79;83.14;100451.52;1663343;84;21006;-82
2022/10/06 07:56:06;;;;;;;11.18;5.60;;;;;;;9.92;83.06;100448.91;1661254;86;21535;-79
2022/10/06 07:58:39;;;;;;;14.78;4.97;;;;;;;10.01;82.07;100446.75;1660073;84;21695;-79
2022/10/06 08:01:11;;;;;;;10.05;4.95;;;;;;;10.10;81.42;100445.86;1655968;85;21528;-77
2022/10/06 08:03:41;;;;;;;94.75;45.05;;;;;;;10.21;81.66;100440.67;1662335;86;21073;-75
2022/10/06 08:06:17;;;;;;;15.78;6.58;;;;;;;10.35;81.74;100438.92;1666730;84;20976;-78
2022/10/06 08:08:47;;;;;;;7.97;4.15;;;;;;;10.48;80.63;100437.14;1664460;84;21050;-78
2022/10/06 08:11:15;;;;;;;10.75;4.55;;;;;;;10.52;79.98;100439.75;1662086;84;21118;-77
2022/10/06 08:13:46;;;;;;;12.93;5.00;;;;;;;10.58;80.36;100432.78;1663615;84;21533;-80
2022/10/06 08:16:20;;;;;;;9.30;3.92;;;;;;;10.67;79.34;100424.95;1666268;84;21087;-78
2022/10/06 08:18:54;;;;;;;7.10;3.60;;;;;;;10.80;79.91;100430.95;1660896;86;21657;-76
2022/10/06 08:21:33;;;;;;;6.35;3.72;;;;;;;10.89;79.31;100431.77;1663415;86;21498;-77
2022/10/06 08:24:01;;;;;;;9.85;4.35;;;;;;;10.93;78.25;100427.42;1661366;85;21497;-78
2022/10/06 08:26:29;;;;;;;7.20;3.70;;;;;;;11.03;76.92;100428.24;1657436;85;21070;-81
2022/10/06 08:29:01;;;;;;;11.12;3.92;;;;;;;11.11;78.38;100424.70;1659737;86;21018;-79
2022/10/06 08:31:27;;;;;;;8.23;3.90;;;;;;;11.24;78.43;100424.21;1660621;85;21033;-80
2022/10/06 08:33:56;;;;;;;12.00;3.65;;;;;;;11.40;77.50;100429.29;1663449;86;20994;-77
2022/10/06 08:36:26;;;;;;;10.80;4.75;;;;;;;11.43;77.28;100422.33;1662672;86;20990;-79
2022/10/06 08:38:55;;;;;;;8.28;4.03;;;;;;;11.53;77.42;100412.27;1659312;86;21045;-77
2022/10/06 08:41:33;;;;;;;7.97;4.03;;;;;;;11.63;76.64;100415.66;1664478;86;21105;-77
2022/10/06 08:44:17;;;;;;;9.48;3.72;;;;;;;11.74;76.62;100413.84;1664748;85;20976;-77
2022/10/06 08:47:02;;;;;;;12.98;5.42;;;;;;;11.87;77.04;100408.51;1630392;86;21498;-80
2022/10/06 08:49:37;;;;;;;12.13;3.95;;;;;;;11.98;76.00;100401.49;1660926;85;20980;-77
2022/10/06 08:52:31;;;;;;;8.48;4.22;;;;;;;12.13;76.09;100397.84;1623072;87;21062;-79
2022/10/06 08:55:29;;;;;;;7.33;3.62;;;;;;;12.25;75.29;100408.14;1662417;86;21526;-78
2022/10/06 08:58:18;;;;;;;8.33;3.67;;;;;;;12.38;73.83;100406.72;1659997;86;21534;-77
2022/10/06 09:00:45;;;;;;;6.40;3.55;;;;;;;12.39;72.70;100409.29;1663028;86;20997;-77
2022/10/06 09:03:24;;;;;;;7.78;4.33;;;;;;;12.51;73.85;100403.06;1654749;86;21014;-78
2022/10/06 09:05:56;;;;;;;6.10;3.33;;;;;;;12.67;73.77;100397.22;1655145;86;21053;-76
2022/10/06 09:08:49;;;;;;;8.05;2.95;;;;;;;12.74;70.42;100398.42;1661727;86;21026;-76
2022/10/06 09:11:25;;;;;;;9.90;3.45;;;;;;;12.84;72.31;100396.56;1664771;86;21026;-76
2022/10/06 09:14:16;;;;;;;6.70;2.87;;;;;;;13.01;72.21;100397.65;1661134;86;21069;-76
2022/10/06 09:16:49;;;;;;;6.22;3.33;;;;;;;13.11;71.74;100391.81;1659875;86;21037;-76
2022/10/06 09:19:38;;;;;;;6.12;3.25;;;;;;;13.22;71.41;100395.59;1663598;86;21553;-76
2022/10/06 09:22:17;;;;;;;8.90;2.85;;;;;;;13.33;71.37;100382.83;1657437;86;21015;-78
2022/10/06 09:24:49;;;;;;;6.45;3.00;;;;;;;13.48;71.04;100385.62;1659665;86;21006;-78
2022/10/06 09:27:20;;;;;;;6.58;3.55;;;;;;;13.64;71.62;100388.84;1665936;86;21038;-76
2022/10/06 09:29:50;;;;;;;5.50;2.70;;;;;;;13.78;70.67;100377.30;1667007;85;21077;-75
2022/10/06 09:32:20;;;;;;;8.85;2.80;;;;;;;13.90;70.20;100382.29;1664350;85;21243;-77
2022/10/06 09:34:52;;;;;;;7.22;2.72;;;;;;;14.01;68.44;100381.66;1658500;86;21514;-78
2022/10/06 09:37:20;;;;;;;8.13;2.58;;;;;;;14.10;69.07;100380.61;1664005;85;21058;-76
2022/10/06 09:39:51;;;;;;;7.47;2.62;;;;;;;14.18;68.58;100383.09;1664988;85;21081;-76
2022/10/06 09:42:24;;;;;;;5.45;2.47;;;;;;;14.30;67.34;100384.14;1658510;86;21617;-77
2022/10/06 09:45:06;;;;;;;7.67;2.47;;;;;;;14.37;65.57;100376.61;1660856;86;21049;-77
2022/10/06 09:47:39;;;;;;;3.97;2.03;;;;;;;14.47;67.06;100372.05;1662241;85;21152;-76
2022/10/06 09:50:21;;;;;;;3.17;2.10;;;;;;;14.59;65.16;100369.66;1669098;84;21142;-80
2022/10/06 09:53:03;;;;;;;4.22;2.40;;;;;;;14.66;62.23;100375.16;1659537;85;20976;-75
2022/10/06 09:55:42;;;;;;;5.78;2.40;;;;;;;14.76;65.67;100375.82;1625652;86;21036;-76
2022/10/06 09:58:28;;;;;;;4.12;2.15;;;;;;;14.85;64.88;100373.86;1665172;85;21613;-80
2022/10/06 10:01:06;;;;;;;5.35;2.20;;;;;;;14.95;63.32;100369.28;1666607;86;21021;-77
2022/10/06 10:03:50;;;;;;;5.42;2.75;;;;;;;15.06;63.13;100371.64;1667357;86;21903;-78
2022/10/06 10:06:30;;;;;;;4.33;2.27;;;;;;;15.16;63.27;100364.02;1662296;86;21034;-75
2022/10/06 10:09:24;;;;;;;4.92;2.20;;;;;;;15.26;63.71;100360.27;1666083;86;21062;-76
2022/10/06 10:12:23;;;;;;;4.97;2.30;;;;;;;15.35;62.42;100360.48;1663865;86;21538;-75
2022/10/06 10:15:03;;;;;;;5.10;2.40;;;;;;;15.50;63.09;100356.64;1664545;86;21580;-77
2022/10/06 10:17:53;;;;;;;4.53;2.40;;;;;;;15.61;62.39;100359.83;1662027;86;21017;-76
2022/10/06 10:20:59;;;;;;;6.30;2.50;;;;;;;15.67;60.49;100354.42;1661915;84;20991;-79
2022/10/06 10:23:38;;;;;;;5.92;2.70;;;;;;;15.75;61.04;100354.25;1656287;86;20982;-76
2022/10/06 10:26:47;;;;;;;7.92;2.87;;;;;;;15.91;61.96;100358.64;1663704;84;21018;-77
2022/10/06 10:30:00;;;;;;;6.15;3.42;;;;;;;16.01;59.33;100356.17;1656001;85;21032;-77
2022/10/06 10:32:46;;;;;;;6.58;3.25;;;;;;;16.16;61.09;100344.41;1666567;84;21609;-79
2022/10/06 10:35:44;;;;;;;5.50;2.90;;;;;;;16.31;59.63;100340.48;1663449;86;21839;-80
2022/10/06 10:38:21;;;;;;;5.50;2.72;;;;;;;16.45;60.43;100338.34;1664841;84;21043;-76
2022/10/06 10:41:08;;;;;;;5.12;2.40;;;;;;;16.66;60.22;100335.97;1655759;86;20996;-79
2022/10/06 10:43:52;;;;;;;6.50;2.60;;;;;;;16.80;58.55;100336.39;1661598;86;21031;-78
2022/10/06 10:46:34;;;;;;;4.15;2.25;;;;;;;16.82;55.97;100334.61;1665742;84;21042;-78
2022/10/06 10:49:29;;;;;;;4.55;2.33;;;;;;;16.92;58.21;100329.08;1661902;84;21006;-77
2022/10/06 10:52:19;;;;;;;4.45;2.47;;;;;;;17.05;58.80;100321.19;1664105;86;21483;-77
2022/10/06 10:55:02;;;;;;;4.03;2.00;;;;;;;17.24;57.91;100324.95;1660980;86;21196;-79
2022/10/06 10:57:37;;;;;;;4.58;2.15;;;;;;;17.45;58.28;100325.16;1665942;84;21010;-78
2022/10/06 11:00:19;;;;;;;4.83;2.20;;;;;;;17.62;56.49;100317.53;1654701;85;20992;-79
2022/10/06 11:02:48;;;;;;;5.33;2.08;;;;;;;17.74;56.78;100318.87;1624391;87;21557;-79
2022/10/06 11:05:21;;;;;;;5.08;2.20;;;;;;;17.77;55.41;100326.67;1623588;87;21040;-77
2022/10/06 11:08:01;;;;;;;4.08;1.90;;;;;;;17.88;56.06;100319.73;1629938;87;21030;-80
2022/10/06 11:10:33;;;;;;;8.38;2.33;;;;;;;18.06;56.21;100311.63;1634120;86;21530;-78
2022/10/06 11:13:38;;;;;;;5.72;2.00;;;;;;;18.23;56.35;100308.39;1664198;86;21038;-76
2022/10/06 11:16:35;;;;;;;2.98;1.70;;;;;;;18.40;54.72;100307.31;1661983;86;21006;-76
2022/10/06 11:19:33;;;;;;;2.10;1.30;;;;;;;18.56;51.66;100303.62;1660824;86;21061;-77
2022/10/06 11:22:31;;;;;;;3.87;1.75;;;;;;;18.73;51.94;100302.95;1648927;85;21007;-78
2022/10/06 11:25:24;;;;;;;3.30;1.75;;;;;;;18.87;52.46;100305.06;1662314;86;20998;-77
2022/10/06 11:28:16;;;;;;;5.42;2.10;;;;;;;19.13;51.65;100305.32;1668674;86;21454;-78
2022/10/06 11:31:04;;;;;;;4.97;1.80;;;;;;;19.30;51.41;100302.44;1664747;86;21011;-77
2022/10/06 11:33:54;;;;;;;3.33;1.80;;;;;;;19.59;52.31;100292.83;1660807;84;21537;-77
2022/10/06 11:36:33;;;;;;;7.70;2.40;;;;;;;19.91;50.15;100292.38;1660329;86;21015;-75
2022/10/06 11:39:21;;;;;;;5.40;1.80;;;;;;;20.18;45.58;100296.88;1665952;85;20987;-77
2022/10/06 11:41:54;;;;;;;3.92;1.85;;;;;;;20.42;49.01;100285.64;1658649;86;21538;-77
2022/10/06 11:44:38;;;;;;;4.30;2.25;;;;;;;20.72;47.94;100285.14;1661335;86;20987;-77
2022/10/06 11:47:17;;;;;;;4.15;1.95;;;;;;;20.91;47.62;100286.41;1652018;85;21661;-76
2022/10/06 11:49:54;;;;;;;4.95;2.60;;;;;;;21.18;46.16;100290.34;1659731;84;21053;-77
2022/10/06 11:52:27;;;;;;;5.95;1.70;;;;;;;21.47;46.12;100280.56;1668858;86;21078;-76
2022/10/06 11:55:14;;;;;;;4.65;1.90;;;;;;;21.61;45.48;100286.87;1661429;86;21105;-77
2022/10/06 11:58:09;;;;;;;3.27;1.82;;;;;;;21.80;46.04;100290.72;1663473;86;21057;-78
2022/10/06 12:00:41;;;;;;;9.45;4.67;;;;;;;21.76;44.96;100284.34;1664356;86;21585;-77
2022/10/06 12:03:33;;;;;;;7.87;3.47;;;;;;;21.86;45.49;100284.24;1657612;86;21037;-76
2022/10/06 12:06:02;;;;;;;5.87;1.70;;;;;;;21.93;43.34;100279.02;1663628;86;21126;-76